sensor_id;sensor_type;location;lat;lon;timestamp;P1;durP1;ratioP1;P2;durP2;ratioP2
17006;SDS011;8620;51.168;4.154;2023-08-30T07:01:24;1.50;;;1.50;;
17006;SDS011;8620;51.168;4.154;2023-08-30T07:03:59;1.30;;;1.30;;
17006;SDS011;8620;51.168;4.154;2023-08-30T07:06:27;1.30;;;1.30;;
17006;SDS011;8620;51.168;4.154;2023-08-30T07:08:58;2.90;;;2.70;;
17006;SDS011;8620;51.168;4.154;2023-08-30T07:11:24;2.20;;;2.00;;
17006;SDS011;8620;51.168;4.154;2023-08-30T07:14:12;3.57;;;3.37;;
17006;SDS011;8620;51.168;4.154;2023-08-30T07:16:40;1.30;;;1.30;;
17006;SDS011;8620;51.168;4.154;2023-08-30T07:19:24;2.13;;;2.07;;
17006;SDS011;8620;51.168;4.154;2023-08-30T07:22:10;1.33;;;1.33;;
17006;SDS011;8620;51.168;4.154;2023-08-30T07:24:39;1.53;;;1.53;;
17006;SDS011;8620;51.168;4.154;2023-08-30T07:30:08;1.40;;;1.40;;
17006;SDS011;8620;51.168;4.154;2023-08-30T07:32:45;1.37;;;1.37;;
17006;SDS011;8620;51.168;4.154;2023-08-30T07:35:13;3.40;;;3.30;;
17006;SDS011;8620;51.168;4.154;2023-08-30T07:37:40;1.50;;;1.50;;
17006;SDS011;8620;51.168;4.154;2023-08-30T07:40:31;3.23;;;3.03;;
17006;SDS011;8620;51.168;4.154;2023-08-30T07:42:57;2.27;;;2.07;;
17006;SDS011;8620;51.168;4.154;2023-08-30T07:45:40;1.87;;;1.87;;
17006;SDS011;8620;51.168;4.154;2023-08-30T07:48:12;2.70;;;2.53;;
17006;SDS011;8620;51.168;4.154;2023-08-30T07:50:40;1.57;;;1.57;;
17006;SDS011;8620;51.168;4.154;2023-08-30T07:53:24;1.80;;;1.80;;
17006;SDS011;8620;51.168;4.154;2023-08-30T07:55:52;1.80;;;1.80;;
17006;SDS011;8620;51.168;4.154;2023-08-30T07:58:41;2.83;;;2.37;;
17006;SDS011;8620;51.168;4.154;2023-08-30T08:01:25;2.00;;;2.00;;
17006;SDS011;8620;51.168;4.154;2023-08-30T08:04:08;1.80;;;1.80;;
17006;SDS011;8620;51.168;4.154;2023-08-30T08:06:43;2.33;;;2.23;;
17006;SDS011;8620;51.168;4.154;2023-08-30T08:09:09;2.00;;;2.00;;
17006;SDS011;8620;51.168;4.154;2023-08-30T08:11:55;2.93;;;2.83;;
17006;SDS011;8620;51.168;4.154;2023-08-30T08:14:26;3.30;;;3.20;;
17006;SDS011;8620;51.168;4.154;2023-08-30T08:16:52;2.70;;;2.60;;
17006;SDS011;8620;51.168;4.154;2023-08-30T08:19:21;2.70;;;2.60;;
17006;SDS011;8620;51.168;4.154;2023-08-30T08:21:47;1.70;;;1.70;;
17006;SDS011;8620;51.168;4.154;2023-08-30T08:24:21;3.00;;;2.90;;
17006;SDS011;8620;51.168;4.154;2023-08-30T08:26:54;1.83;;;1.83;;
17006;SDS011;8620;51.168;4.154;2023-08-30T08:29:23;3.80;;;2.40;;
17006;SDS011;8620;51.168;4.154;2023-08-30T08:31:49;1.87;;;1.87;;
17006;SDS011;8620;51.168;4.154;2023-08-30T08:34:17;4.73;;;4.43;;
17006;SDS011;8620;51.168;4.154;2023-08-30T08:36:43;2.30;;;2.30;;
17006;SDS011;8620;51.168;4.154;2023-08-30T08:39:09;2.87;;;2.73;;
17006;SDS011;8620;51.168;4.154;2023-08-30T08:41:44;2.80;;;2.70;;
17006;SDS011;8620;51.168;4.154;2023-08-30T08:44:19;3.87;;;3.70;;
17006;SDS011;8620;51.168;4.154;2023-08-30T08:46:47;2.60;;;2.50;;
17006;SDS011;8620;51.168;4.154;2023-08-30T08:49:17;3.57;;;3.47;;
17006;SDS011;8620;51.168;4.154;2023-08-30T08:51:50;1.80;;;1.80;;
17006;SDS011;8620;51.168;4.154;2023-08-30T08:54:16;2.93;;;2.73;;
17006;SDS011;8620;51.168;4.154;2023-08-30T08:56:42;2.30;;;2.20;;
17006;SDS011;8620;51.168;4.154;2023-08-30T08:59:20;2.40;;;2.20;;
17006;SDS011;8620;51.168;4.154;2023-08-30T09:01:46;1.52;;;1.52;;
17006;SDS011;8620;51.168;4.154;2023-08-30T09:04:14;2.83;;;2.60;;
17006;SDS011;8620;51.168;4.154;2023-08-30T09:06:45;2.15;;;2.05;;
17006;SDS011;8620;51.168;4.154;2023-08-30T09:09:12;2.00;;;1.80;;
17006;SDS011;8620;51.168;4.154;2023-08-30T09:11:38;1.83;;;1.73;;
17006;SDS011;8620;51.168;4.154;2023-08-30T09:14:04;1.33;;;1.27;;
17006;SDS011;8620;51.168;4.154;2023-08-30T09:16:30;1.38;;;1.38;;
17006;SDS011;8620;51.168;4.154;2023-08-30T09:19:04;1.98;;;1.95;;
17006;SDS011;8620;51.168;4.154;2023-08-30T09:21:38;1.77;;;1.77;;
17006;SDS011;8620;51.168;4.154;2023-08-30T09:24:07;3.40;;;3.00;;
17006;SDS011;8620;51.168;4.154;2023-08-30T09:26:35;0.80;;;0.80;;
17006;SDS011;8620;51.168;4.154;2023-08-30T09:29:06;2.20;;;2.10;;
17006;SDS011;8620;51.168;4.154;2023-08-30T09:31:37;1.90;;;1.90;;
17006;SDS011;8620;51.168;4.154;2023-08-30T09:34:07;1.45;;;1.45;;
17006;SDS011;8620;51.168;4.154;2023-08-30T09:36:36;1.30;;;1.30;;
17006;SDS011;8620;51.168;4.154;2023-08-30T09:39:19;1.45;;;1.45;;
17006;SDS011;8620;51.168;4.154;2023-08-30T09:41:49;1.00;;;1.00;;
17006;SDS011;8620;51.168;4.154;2023-08-30T09:44:19;6.22;;;5.80;;
17006;SDS011;8620;51.168;4.154;2023-08-30T09:46:51;1.58;;;1.58;;
17006;SDS011;8620;51.168;4.154;2023-08-30T09:49:23;1.20;;;1.20;;
17006;SDS011;8620;51.168;4.154;2023-08-30T09:52:03;1.00;;;1.00;;
17006;SDS011;8620;51.168;4.154;2023-08-30T09:54:39;0.60;;;0.60;;
17006;SDS011;8620;51.168;4.154;2023-08-30T09:57:09;0.90;;;0.90;;
17006;SDS011;8620;51.168;4.154;2023-08-30T09:59:44;0.50;;;0.50;;
17006;SDS011;8620;51.168;4.154;2023-08-30T10:02:18;0.80;;;0.80;;
17006;SDS011;8620;51.168;4.154;2023-08-30T10:04:45;1.00;;;1.00;;
17006;SDS011;8620;51.168;4.154;2023-08-30T10:07:12;8.95;;;1.67;;
17006;SDS011;8620;51.168;4.154;2023-08-30T10:09:45;0.55;;;0.55;;
17006;SDS011;8620;51.168;4.154;2023-08-30T10:12:22;0.43;;;0.43;;
17006;SDS011;8620;51.168;4.154;2023-08-30T10:14:55;0.90;;;0.90;;
17006;SDS011;8620;51.168;4.154;2023-08-30T10:17:52;0.40;;;0.40;;
17006;SDS011;8620;51.168;4.154;2023-08-30T10:20:26;1.00;;;0.98;;
17006;SDS011;8620;51.168;4.154;2023-08-30T10:33:28;0.30;;;0.30;;
17006;SDS011;8620;51.168;4.154;2023-08-30T10:36:19;0.30;;;0.30;;
17006;SDS011;8620;51.168;4.154;2023-08-30T10:38:52;0.40;;;0.40;;
17006;SDS011;8620;51.168;4.154;2023-08-30T10:42:00;1.90;;;1.85;;
17006;SDS011;8620;51.168;4.154;2023-08-30T10:47:38;0.20;;;0.20;;
17006;SDS011;8620;51.168;4.154;2023-08-30T10:50:08;0.20;;;0.20;;
17006;SDS011;8620;51.168;4.154;2023-08-30T10:52:36;0.15;;;0.15;;
17006;SDS011;8620;51.168;4.154;2023-08-30T10:55:12;0.35;;;0.20;;
17006;SDS011;8620;51.168;4.154;2023-08-30T10:57:58;1.25;;;0.35;;
17006;SDS011;8620;51.168;4.154;2023-08-30T11:00:56;0.20;;;0.20;;
17006;SDS011;8620;51.168;4.154;2023-08-30T11:03:23;2.10;;;0.52;;
17006;SDS011;8620;51.168;4.154;2023-08-30T11:05:55;0.88;;;0.63;;
17006;SDS011;8620;51.168;4.154;2023-08-30T11:08:27;0.28;;;0.28;;
17006;SDS011;8620;51.168;4.154;2023-08-30T11:11:17;2.42;;;0.63;;
17006;SDS011;8620;51.168;4.154;2023-08-30T11:13:55;0.38;;;0.38;;
17006;SDS011;8620;51.168;4.154;2023-08-30T11:16:34;0.63;;;0.63;;
17006;SDS011;8620;51.168;4.154;2023-08-30T11:19:04;0.20;;;0.20;;
17006;SDS011;8620;51.168;4.154;2023-08-30T11:21:36;0.20;;;0.20;;
17006;SDS011;8620;51.168;4.154;2023-08-30T11:24:11;4.00;;;1.45;;
17006;SDS011;8620;51.168;4.154;2023-08-30T11:26:46;0.50;;;0.50;;
17006;SDS011;8620;51.168;4.154;2023-08-30T11:29:20;1.00;;;0.57;;
17006;SDS011;8620;51.168;4.154;2023-08-30T11:31:54;0.10;;;0.10;;
17006;SDS011;8620;51.168;4.154;2023-08-30T11:34:27;0.20;;;0.20;;
17006;SDS011;8620;51.168;4.154;2023-08-30T11:37:02;0.43;;;0.40;;
17006;SDS011;8620;51.168;4.154;2023-08-30T11:39:28;0.20;;;0.20;;
17006;SDS011;8620;51.168;4.154;2023-08-30T11:41:57;0.40;;;0.40;;
17006;SDS011;8620;51.168;4.154;2023-08-30T11:44:33;0.10;;;0.10;;
17006;SDS011;8620;51.168;4.154;2023-08-30T11:47:17;0.20;;;0.20;;
17006;SDS011;8620;51.168;4.154;2023-08-30T11:49:54;0.20;;;0.20;;
17006;SDS011;8620;51.168;4.154;2023-08-30T11:52:39;2.53;;;0.77;;
17006;SDS011;8620;51.168;4.154;2023-08-30T11:55:06;2.20;;;1.45;;
17006;SDS011;8620;51.168;4.154;2023-08-30T11:57:41;0.13;;;0.13;;
17006;SDS011;8620;51.168;4.154;2023-08-30T12:00:12;0.10;;;0.10;;
17006;SDS011;8620;51.168;4.154;2023-08-30T12:02:55;0.32;;;0.32;;
17006;SDS011;8620;51.168;4.154;2023-08-30T12:05:23;0.10;;;0.10;;
17006;SDS011;8620;51.168;4.154;2023-08-30T12:07:52;0.10;;;0.10;;
17006;SDS011;8620;51.168;4.154;2023-08-30T12:11:05;0.20;;;0.20;;
17006;SDS011;8620;51.168;4.154;2023-08-30T12:16:57;0.13;;;0.13;;
17006;SDS011;8620;51.168;4.154;2023-08-30T12:25:31;0.20;;;0.20;;
17006;SDS011;8620;51.168;4.154;2023-08-30T12:28:41;0.20;;;0.20;;
17006;SDS011;8620;51.168;4.154;2023-08-30T12:31:29;0.20;;;0.20;;
17006;SDS011;8620;51.168;4.154;2023-08-30T12:34:17;0.15;;;0.15;;
17006;SDS011;8620;51.168;4.154;2023-08-30T12:37:07;0.10;;;0.10;;
17006;SDS011;8620;51.168;4.154;2023-08-30T12:42:46;0.40;;;0.40;;
17006;SDS011;8620;51.168;4.154;2023-08-30T12:48:21;0.10;;;0.10;;
17006;SDS011;8620;51.168;4.154;2023-08-30T12:51:14;0.10;;;0.10;;
17006;SDS011;8620;51.168;4.154;2023-08-30T12:53:59;1.45;;;1.42;;
17006;SDS011;8620;51.168;4.154;2023-08-30T12:56:37;0.20;;;0.20;;
17006;SDS011;8620;51.168;4.154;2023-08-30T12:59:10;1.48;;;1.38;;
17006;SDS011;8620;51.168;4.154;2023-08-30T13:05:03;0.20;;;0.20;;
17006;SDS011;8620;51.168;4.154;2023-08-30T13:07:52;1.58;;;1.00;;
17006;SDS011;8620;51.168;4.154;2023-08-30T13:10:38;0.10;;;0.10;;
17006;SDS011;8620;51.168;4.154;2023-08-30T13:13:42;0.13;;;0.13;;
17006;SDS011;8620;51.168;4.154;2023-08-30T13:16:29;0.20;;;0.20;;
17006;SDS011;8620;51.168;4.154;2023-08-30T13:19:18;0.10;;;0.10;;
17006;SDS011;8620;51.168;4.154;2023-08-30T13:22:01;0.65;;;0.50;;
17006;SDS011;8620;51.168;4.154;2023-08-30T13:24:36;0.15;;;0.15;;
17006;SDS011;8620;51.168;4.154;2023-08-30T13:27:23;0.22;;;0.22;;
17006;SDS011;8620;51.168;4.154;2023-08-30T13:30:05;0.20;;;0.20;;
17006;SDS011;8620;51.168;4.154;2023-08-30T13:32:49;20.52;;;1.80;;
17006;SDS011;8620;51.168;4.154;2023-08-30T13:35:42;0.30;;;0.30;;
17006;SDS011;8620;51.168;4.154;2023-08-30T13:41:24;1.95;;;0.20;;
17006;SDS011;8620;51.168;4.154;2023-08-30T13:43:52;0.20;;;0.20;;
17006;SDS011;8620;51.168;4.154;2023-08-30T13:46:27;0.25;;;0.25;;
17006;SDS011;8620;51.168;4.154;2023-08-30T13:49:10;0.38;;;0.38;;
17006;SDS011;8620;51.168;4.154;2023-08-30T13:51:39;0.57;;;0.57;;
17006;SDS011;8620;51.168;4.154;2023-08-30T13:54:24;0.20;;;0.20;;
17006;SDS011;8620;51.168;4.154;2023-08-30T13:57:18;1.00;;;0.65;;
17006;SDS011;8620;51.168;4.154;2023-08-30T14:03:05;1.90;;;1.80;;
17006;SDS011;8620;51.168;4.154;2023-08-30T14:11:23;0.20;;;0.20;;
17006;SDS011;8620;51.168;4.154;2023-08-30T14:14:15;0.10;;;0.10;;
17006;SDS011;8620;51.168;4.154;2023-08-30T14:17:06;0.20;;;0.20;;
17006;SDS011;8620;51.168;4.154;2023-08-30T14:19:50;0.10;;;0.10;;
17006;SDS011;8620;51.168;4.154;2023-08-30T14:22:25;1.13;;;1.13;;
17006;SDS011;8620;51.168;4.154;2023-08-30T14:24:54;0.10;;;0.10;;
17006;SDS011;8620;51.168;4.154;2023-08-30T14:27:51;0.20;;;0.20;;
17006;SDS011;8620;51.168;4.154;2023-08-30T14:30:16;0.10;;;0.10;;
17006;SDS011;8620;51.168;4.154;2023-08-30T14:33:23;0.10;;;0.10;;
17006;SDS011;8620;51.168;4.154;2023-08-30T14:36:16;0.10;;;0.10;;
17006;SDS011;8620;51.168;4.154;2023-08-30T14:39:29;0.47;;;0.47;;
17006;SDS011;8620;51.168;4.154;2023-08-30T14:42:17;0.20;;;0.20;;
17006;SDS011;8620;51.168;4.154;2023-08-30T14:45:07;0.10;;;0.10;;
17006;SDS011;8620;51.168;4.154;2023-08-30T14:47:53;0.10;;;0.10;;
17006;SDS011;8620;51.168;4.154;2023-08-30T14:50:26;0.20;;;0.20;;
17006;SDS011;8620;51.168;4.154;2023-08-30T14:53:11;0.20;;;0.20;;
17006;SDS011;8620;51.168;4.154;2023-08-30T14:56:12;0.20;;;0.20;;
17006;SDS011;8620;51.168;4.154;2023-08-30T14:59:05;1.20;;;1.20;;
17006;SDS011;8620;51.168;4.154;2023-08-30T15:04:49;0.20;;;0.20;;
17006;SDS011;8620;51.168;4.154;2023-08-30T15:07:36;0.30;;;0.30;;
17006;SDS011;8620;51.168;4.154;2023-08-30T15:10:34;0.10;;;0.10;;
17006;SDS011;8620;51.168;4.154;2023-08-30T15:13:15;0.68;;;0.68;;
17006;SDS011;8620;51.168;4.154;2023-08-30T15:16:04;0.22;;;0.22;;
17006;SDS011;8620;51.168;4.154;2023-08-30T15:18:49;0.20;;;0.20;;
17006;SDS011;8620;51.168;4.154;2023-08-30T15:24:24;0.20;;;0.20;;
17006;SDS011;8620;51.168;4.154;2023-08-30T15:27:25;0.47;;;0.47;;
17006;SDS011;8620;51.168;4.154;2023-08-30T15:30:11;0.30;;;0.30;;
17006;SDS011;8620;51.168;4.154;2023-08-30T15:32:45;0.20;;;0.20;;
17006;SDS011;8620;51.168;4.154;2023-08-30T15:35:50;0.10;;;0.10;;
17006;SDS011;8620;51.168;4.154;2023-08-30T15:41:27;0.20;;;0.20;;
17006;SDS011;8620;51.168;4.154;2023-08-30T15:46:51;2.28;;;0.50;;
17006;SDS011;8620;51.168;4.154;2023-08-30T15:52:12;0.10;;;0.10;;
17006;SDS011;8620;51.168;4.154;2023-08-30T15:54:59;0.20;;;0.20;;
17006;SDS011;8620;51.168;4.154;2023-08-30T15:57:29;0.52;;;0.52;;
17006;SDS011;8620;51.168;4.154;2023-08-30T15:59:55;0.20;;;0.20;;
17006;SDS011;8620;51.168;4.154;2023-08-30T16:02:24;0.20;;;0.20;;
17006;SDS011;8620;51.168;4.154;2023-08-30T16:05:02;0.38;;;0.38;;
17006;SDS011;8620;51.168;4.154;2023-08-30T16:07:49;0.20;;;0.20;;
17006;SDS011;8620;51.168;4.154;2023-08-30T16:10:25;0.20;;;0.20;;
17006;SDS011;8620;51.168;4.154;2023-08-30T16:13:04;0.20;;;0.20;;
17006;SDS011;8620;51.168;4.154;2023-08-30T16:15:33;0.10;;;0.10;;
17006;SDS011;8620;51.168;4.154;2023-08-30T16:18:16;0.20;;;0.20;;
17006;SDS011;8620;51.168;4.154;2023-08-30T16:23:37;0.10;;;0.10;;
17006;SDS011;8620;51.168;4.154;2023-08-30T16:26:46;0.10;;;0.10;;
17006;SDS011;8620;51.168;4.154;2023-08-30T16:29:42;0.20;;;0.20;;
17006;SDS011;8620;51.168;4.154;2023-08-30T16:32:07;0.20;;;0.20;;
17006;SDS011;8620;51.168;4.154;2023-08-30T16:34:59;0.20;;;0.20;;
17006;SDS011;8620;51.168;4.154;2023-08-30T16:37:26;0.20;;;0.20;;
17006;SDS011;8620;51.168;4.154;2023-08-30T16:39:53;0.20;;;0.20;;
17006;SDS011;8620;51.168;4.154;2023-08-30T16:42:29;0.20;;;0.20;;
17006;SDS011;8620;51.168;4.154;2023-08-30T16:51:03;0.20;;;0.20;;
17006;SDS011;8620;51.168;4.154;2023-08-30T16:53:36;0.10;;;0.10;;
17006;SDS011;8620;51.168;4.154;2023-08-30T16:56:52;2.97;;;0.93;;
17006;SDS011;8620;51.168;4.154;2023-08-30T16:59:27;0.10;;;0.10;;
17006;SDS011;8620;51.168;4.154;2023-08-30T17:02:30;0.10;;;0.10;;
17006;SDS011;8620;51.168;4.154;2023-08-30T17:05:13;0.13;;;0.13;;
17006;SDS011;8620;51.168;4.154;2023-08-30T17:08:00;3.10;;;0.93;;
17006;SDS011;8620;51.168;4.154;2023-08-30T17:10:31;0.25;;;0.25;;
17006;SDS011;8620;51.168;4.154;2023-08-30T17:13:14;0.30;;;0.30;;
17006;SDS011;8620;51.168;4.154;2023-08-30T17:15:49;0.20;;;0.20;;
17006;SDS011;8620;51.168;4.154;2023-08-30T17:18:34;0.20;;;0.20;;
17006;SDS011;8620;51.168;4.154;2023-08-30T17:21:09;0.20;;;0.20;;
17006;SDS011;8620;51.168;4.154;2023-08-30T17:23:40;0.13;;;0.13;;
17006;SDS011;8620;51.168;4.154;2023-08-30T17:26:23;0.37;;;0.37;;
17006;SDS011;8620;51.168;4.154;2023-08-30T17:29:00;0.23;;;0.23;;
17006;SDS011;8620;51.168;4.154;2023-08-30T17:31:47;0.20;;;0.20;;
17006;SDS011;8620;51.168;4.154;2023-08-30T17:34:22;0.27;;;0.27;;
17006;SDS011;8620;51.168;4.154;2023-08-30T17:36:49;0.20;;;0.20;;
17006;SDS011;8620;51.168;4.154;2023-08-30T17:42:09;0.57;;;0.30;;
17006;SDS011;8620;51.168;4.154;2023-08-30T17:44:44;0.20;;;0.20;;
17006;SDS011;8620;51.168;4.154;2023-08-30T17:47:20;0.20;;;0.20;;
17006;SDS011;8620;51.168;4.154;2023-08-30T17:49:51;0.20;;;0.20;;
17006;SDS011;8620;51.168;4.154;2023-08-30T17:52:20;0.13;;;0.13;;
17006;SDS011;8620;51.168;4.154;2023-08-30T17:55:04;0.20;;;0.20;;
17006;SDS011;8620;51.168;4.154;2023-08-30T17:57:31;0.20;;;0.20;;
17006;SDS011;8620;51.168;4.154;2023-08-30T18:00:00;0.20;;;0.20;;
17006;SDS011;8620;51.168;4.154;2023-08-30T18:02:56;0.20;;;0.20;;
17006;SDS011;8620;51.168;4.154;2023-08-30T18:05:25;0.20;;;0.20;;
17006;SDS011;8620;51.168;4.154;2023-08-30T18:07:56;0.20;;;0.20;;
17006;SDS011;8620;51.168;4.154;2023-08-30T18:10:29;0.20;;;0.20;;
17006;SDS011;8620;51.168;4.154;2023-08-30T18:13:07;0.20;;;0.20;;
17006;SDS011;8620;51.168;4.154;2023-08-30T18:15:36;0.20;;;0.20;;
17006;SDS011;8620;51.168;4.154;2023-08-30T18:18:04;1.73;;;0.87;;
17006;SDS011;8620;51.168;4.154;2023-08-30T18:20:30;0.20;;;0.20;;
17006;SDS011;8620;51.168;4.154;2023-08-30T18:22:56;0.10;;;0.10;;
17006;SDS011;8620;51.168;4.154;2023-08-30T18:28:14;0.20;;;0.20;;
17006;SDS011;8620;51.168;4.154;2023-08-30T18:31:01;0.20;;;0.20;;
17006;SDS011;8620;51.168;4.154;2023-08-30T18:33:35;0.10;;;0.10;;
17006;SDS011;8620;51.168;4.154;2023-08-30T18:36:04;0.10;;;0.10;;
17006;SDS011;8620;51.168;4.154;2023-08-30T18:38:38;0.20;;;0.20;;
17006;SDS011;8620;51.168;4.154;2023-08-30T18:41:08;0.33;;;0.33;;
17006;SDS011;8620;51.168;4.154;2023-08-30T18:43:42;0.37;;;0.37;;
17006;SDS011;8620;51.168;4.154;2023-08-30T18:46:09;0.40;;;0.40;;
17006;SDS011;8620;51.168;4.154;2023-08-30T18:48:48;0.20;;;0.20;;
17006;SDS011;8620;51.168;4.154;2023-08-30T18:51:14;0.20;;;0.20;;
17006;SDS011;8620;51.168;4.154;2023-08-30T18:53:42;0.20;;;0.20;;
17006;SDS011;8620;51.168;4.154;2023-08-30T18:56:13;0.10;;;0.10;;
17006;SDS011;8620;51.168;4.154;2023-08-30T18:58:42;0.20;;;0.20;;
17006;SDS011;8620;51.168;4.154;2023-08-30T19:01:36;0.60;;;0.60;;
17006;SDS011;8620;51.168;4.154;2023-08-30T19:04:02;9.53;;;0.67;;
17006;SDS011;8620;51.168;4.154;2023-08-30T19:06:29;0.20;;;0.20;;
17006;SDS011;8620;51.168;4.154;2023-08-30T19:08:59;0.20;;;0.20;;
17006;SDS011;8620;51.168;4.154;2023-08-30T19:11:46;0.30;;;0.30;;
17006;SDS011;8620;51.168;4.154;2023-08-30T19:14:16;0.43;;;0.43;;
17006;SDS011;8620;51.168;4.154;2023-08-30T19:17:05;0.30;;;0.30;;
17006;SDS011;8620;51.168;4.154;2023-08-30T19:19:31;0.30;;;0.30;;
17006;SDS011;8620;51.168;4.154;2023-08-30T19:22:02;0.40;;;0.40;;
17006;SDS011;8620;51.168;4.154;2023-08-30T19:24:31;0.60;;;0.50;;
17006;SDS011;8620;51.168;4.154;2023-08-30T19:27:04;0.43;;;0.43;;
17006;SDS011;8620;51.168;4.154;2023-08-30T19:29:30;0.43;;;0.43;;
17006;SDS011;8620;51.168;4.154;2023-08-30T19:31:57;14.83;;;2.20;;
17006;SDS011;8620;51.168;4.154;2023-08-30T19:37:20;2.87;;;1.97;;
17006;SDS011;8620;51.168;4.154;2023-08-30T19:39:52;0.30;;;0.30;;
17006;SDS011;8620;51.168;4.154;2023-08-30T19:42:19;0.30;;;0.30;;
17006;SDS011;8620;51.168;4.154;2023-08-30T19:44:49;0.30;;;0.30;;
17006;SDS011;8620;51.168;4.154;2023-08-30T19:47:28;0.30;;;0.30;;
17006;SDS011;8620;51.168;4.154;2023-08-30T19:49:57;0.30;;;0.30;;
17006;SDS011;8620;51.168;4.154;2023-08-30T19:52:26;0.30;;;0.30;;
17006;SDS011;8620;51.168;4.154;2023-08-30T19:54:52;0.40;;;0.40;;
17006;SDS011;8620;51.168;4.154;2023-08-30T19:57:20;0.30;;;0.30;;
17006;SDS011;8620;51.168;4.154;2023-08-30T19:59:46;0.30;;;0.30;;
17006;SDS011;8620;51.168;4.154;2023-08-30T20:02:14;0.37;;;0.37;;
17006;SDS011;8620;51.168;4.154;2023-08-30T20:04:40;0.30;;;0.30;;
17006;SDS011;8620;51.168;4.154;2023-08-30T20:07:07;0.30;;;0.30;;
17006;SDS011;8620;51.168;4.154;2023-08-30T20:09:33;0.30;;;0.30;;
17006;SDS011;8620;51.168;4.154;2023-08-30T20:12:08;0.30;;;0.30;;
17006;SDS011;8620;51.168;4.154;2023-08-30T20:14:34;0.30;;;0.30;;
17006;SDS011;8620;51.168;4.154;2023-08-30T20:17:05;0.30;;;0.30;;
17006;SDS011;8620;51.168;4.154;2023-08-30T20:19:35;0.30;;;0.30;;
17006;SDS011;8620;51.168;4.154;2023-08-30T20:22:23;0.30;;;0.30;;
17006;SDS011;8620;51.168;4.154;2023-08-30T20:24:58;0.50;;;0.50;;
17006;SDS011;8620;51.168;4.154;2023-08-30T20:27:33;0.50;;;0.50;;
17006;SDS011;8620;51.168;4.154;2023-08-30T20:30:03;0.30;;;0.30;;
17006;SDS011;8620;51.168;4.154;2023-08-30T20:32:38;0.40;;;0.40;;
17006;SDS011;8620;51.168;4.154;2023-08-30T20:35:11;0.30;;;0.30;;
17006;SDS011;8620;51.168;4.154;2023-08-30T20:37:43;0.80;;;0.80;;
17006;SDS011;8620;51.168;4.154;2023-08-30T20:40:37;0.30;;;0.30;;
17006;SDS011;8620;51.168;4.154;2023-08-30T20:43:13;0.60;;;0.60;;
17006;SDS011;8620;51.168;4.154;2023-08-30T20:45:39;0.80;;;0.80;;
17006;SDS011;8620;51.168;4.154;2023-08-30T20:48:22;0.30;;;0.30;;
17006;SDS011;8620;51.168;4.154;2023-08-30T20:50:48;0.30;;;0.30;;
17006;SDS011;8620;51.168;4.154;2023-08-30T20:53:32;0.30;;;0.30;;
17006;SDS011;8620;51.168;4.154;2023-08-30T20:56:00;0.40;;;0.40;;
17006;SDS011;8620;51.168;4.154;2023-08-30T20:58:31;0.40;;;0.40;;
